createdAt,value
2019-04-26T14:26:39.835Z,38.65
2019-04-26T14:29:15.160Z,42.60
2019-04-26T14:31:51.264Z,39.78
2019-04-26T14:34:19.879Z,38.88
2019-04-26T14:37:05.586Z,39.73
2019-04-26T14:39:38.225Z,44.15
2019-04-26T14:41:59.225Z,36.75
2019-04-26T14:47:13.210Z,37.55
2019-04-26T14:49:43.001Z,37.45
2019-04-26T14:52:14.078Z,41.25
2019-04-26T14:54:47.583Z,41.15
2019-04-26T14:57:28.451Z,36.75
2019-04-26T15:00:04.984Z,43.13
2019-04-26T15:02:35.080Z,39.18
2019-04-26T15:05:12.116Z,41.70
2019-04-26T15:07:51.111Z,41.50
2019-04-26T15:10:21.518Z,41.35
2019-04-26T15:13:05.834Z,40.95
2019-04-26T15:15:32.068Z,48.55
2019-04-26T15:18:02.963Z,48.83
2019-04-26T15:20:35.223Z,45.03
2019-04-26T15:23:08.621Z,50.35
2019-04-26T15:25:48.457Z,45.35
2019-04-26T15:28:19.269Z,47.75
2019-04-26T15:30:54.218Z,42.33
2019-04-26T15:33:25.861Z,48.58
2019-04-26T15:38:26.585Z,43.87
2019-04-26T15:40:59.371Z,52.17
2019-04-26T15:43:33.517Z,47.20
2019-04-26T15:46:08.190Z,43.60
2019-04-26T15:48:40.069Z,49.00
2019-04-26T15:51:20.137Z,45.52
2019-04-26T15:53:57.014Z,44.50
2019-04-26T15:56:28.542Z,52.80
2019-04-26T16:08:15.757Z,50.23
2019-04-26T16:10:53.180Z,42.75
2019-04-26T16:13:25.966Z,50.75
2019-04-26T16:15:59.567Z,41.92
2019-04-26T16:18:32.420Z,49.08
2019-04-26T16:21:04.931Z,50.33
2019-04-26T16:23:41.597Z,44.83
2019-04-26T16:26:15.378Z,44.38
2019-04-26T16:28:48.070Z,54.33
2019-04-26T16:31:29.246Z,51.05
2019-04-26T16:34:10.919Z,53.20
2019-04-26T16:36:45.305Z,47.50
2019-04-26T16:39:17.130Z,44.77
2019-04-26T16:41:49.803Z,48.38
2019-04-26T16:44:29.557Z,51.10
2019-04-26T16:47:03.580Z,57.88
2019-04-26T16:49:41.935Z,58.95
2019-04-26T16:52:13.583Z,49.73
2019-04-26T16:54:52.997Z,52.35
2019-04-26T16:57:25.749Z,47.67
2019-04-26T17:00:00.237Z,54.20
2019-04-26T17:02:36.463Z,47.53
2019-04-26T17:05:17.671Z,46.50
2019-04-26T17:07:53.751Z,46.20
2019-04-26T17:10:24.789Z,46.28
2019-04-26T17:12:57.950Z,45.83
2019-04-26T17:15:32.625Z,44.25
2019-04-26T17:18:14.712Z,47.17
2019-04-26T17:20:55.536Z,43.23
2019-04-26T17:23:33.418Z,45.12
2019-04-26T17:26:06.920Z,43.52
2019-04-26T17:28:39.451Z,45.25
2019-04-26T17:31:12.550Z,46.35
2019-04-26T17:33:45.855Z,45.88
2019-04-26T17:36:19.147Z,50.70
2019-04-26T17:38:56.159Z,42.10
2019-04-26T17:41:31.086Z,41.68
2019-04-26T17:44:10.617Z,49.23
2019-04-26T17:46:42.015Z,45.08
2019-04-26T17:49:21.418Z,44.15
2019-04-26T17:51:57.854Z,43.85
2019-04-26T17:54:46.187Z,39.00
2019-04-26T17:57:14.325Z,45.15
2019-04-26T18:00:06.452Z,40.90
2019-04-26T18:02:41.325Z,44.83
2019-04-26T18:05:05.620Z,39.90
2019-04-26T18:07:55.874Z,44.05
2019-04-26T18:10:21.755Z,40.12
2019-04-26T18:12:58.024Z,38.33
2019-04-26T18:15:30.763Z,48.50
2019-04-26T18:18:05.104Z,46.70
2019-04-26T18:20:41.442Z,47.73
2019-04-26T18:23:15.443Z,43.08
2019-04-26T18:25:48.658Z,47.40
2019-04-26T18:28:28.355Z,46.42
2019-04-26T18:31:06.560Z,49.00
2019-04-26T18:33:46.427Z,45.20
2019-04-26T18:36:19.309Z,42.03
2019-04-26T18:38:53.648Z,47.35
2019-04-26T18:41:28.681Z,43.45
2019-04-26T18:44:06.047Z,46.63
2019-04-26T18:46:44.834Z,45.90
2019-04-26T18:49:20.662Z,41.33
2019-04-26T18:51:50.437Z,44.98
2019-04-26T18:54:26.197Z,38.75
2019-04-26T18:57:00.681Z,43.92
2019-04-26T18:59:44.788Z,39.78
2019-04-26T19:02:23.539Z,45.45
2019-04-26T19:04:55.871Z,42.35
2019-04-26T19:07:32.355Z,41.80
2019-04-26T19:10:05.445Z,46.50
2019-04-26T19:12:41.219Z,39.55
2019-04-26T19:15:21.833Z,41.75
2019-04-26T19:17:55.914Z,39.33
2019-04-26T19:20:30.385Z,42.23
2019-04-26T19:23:05.551Z,47.05
2019-04-26T19:25:41.503Z,40.83
2019-04-26T19:28:14.836Z,42.20
2019-04-26T19:30:50.854Z,39.23
2019-04-26T19:33:22.127Z,46.13
2019-04-26T19:35:55.340Z,39.78
2019-04-26T19:38:28.049Z,37.25
2019-04-26T19:41:02.681Z,37.98
2019-04-26T19:43:39.240Z,34.35
2019-04-26T19:46:16.918Z,32.48
2019-04-26T19:48:49.493Z,32.28
2019-04-26T19:51:27.101Z,31.45
2019-04-26T19:53:59.587Z,30.48
2019-04-26T19:56:34.016Z,31.87
2019-04-26T19:59:07.099Z,32.23
2019-04-26T20:01:41.972Z,32.65
2019-04-26T20:04:15.862Z,30.32
2019-04-26T20:06:54.076Z,27.05
2019-04-26T20:09:26.386Z,26.65
2019-04-26T20:11:59.217Z,29.85
2019-04-26T20:14:49.179Z,25.75
2019-04-26T20:17:21.818Z,27.27
2019-04-26T20:20:02.043Z,25.97
2019-04-26T20:22:36.276Z,24.95
2019-04-26T20:25:09.119Z,25.40
2019-04-26T20:27:42.984Z,23.18
2019-04-26T20:30:27.847Z,25.37
2019-04-26T20:33:01.752Z,23.87
2019-04-26T20:35:34.455Z,21.68
2019-04-26T20:38:07.808Z,22.55
2019-04-26T20:40:43.524Z,22.58
2019-04-26T20:43:25.807Z,20.72
2019-04-26T20:46:08.724Z,22.10
2019-04-26T20:48:25.591Z,24.20
2019-04-26T20:50:59.554Z,24.40
2019-04-26T20:53:39.925Z,21.65
2019-04-26T20:56:09.458Z,20.30
2019-04-26T20:58:43.192Z,20.80
2019-04-26T21:01:28.987Z,21.07
2019-04-26T21:04:02.058Z,20.43
2019-04-26T21:06:43.581Z,21.35
2019-04-26T21:09:18.032Z,20.30
2019-04-26T21:11:51.661Z,23.05
2019-04-26T21:14:24.921Z,21.37
2019-04-26T21:16:58.189Z,21.20
2019-04-26T21:19:32.754Z,22.10
2019-04-26T21:22:05.317Z,19.98
2019-04-26T21:24:50.534Z,20.12
2019-04-26T21:27:25.897Z,21.65
2019-04-26T21:29:59.048Z,20.95
2019-04-26T21:32:35.472Z,23.00
2019-04-26T21:35:11.393Z,21.42
2019-04-26T21:37:49.453Z,20.20
2019-04-26T21:40:23.210Z,23.15
2019-04-26T21:42:59.591Z,22.55
2019-04-26T21:45:31.172Z,24.57
2019-04-26T21:48:06.835Z,23.38
2019-04-26T21:50:39.180Z,22.70
2019-04-26T21:53:13.343Z,23.02
2019-04-26T21:55:46.850Z,21.60
2019-04-26T21:58:19.668Z,26.07
2019-04-26T22:00:56.225Z,25.08
2019-04-26T22:03:29.822Z,25.35
2019-04-26T22:06:04.179Z,23.87
2019-04-26T22:08:38.269Z,22.48
2019-04-26T22:11:14.036Z,24.63
2019-04-26T22:13:47.111Z,22.73
2019-04-26T22:16:34.160Z,22.02
2019-04-26T22:19:08.745Z,20.57
2019-04-26T22:21:43.555Z,24.30
2019-04-26T22:24:17.904Z,26.60
2019-04-26T22:26:53.221Z,23.87
2019-04-26T22:29:25.833Z,18.27
2019-04-26T22:32:05.984Z,27.15
2019-04-26T22:34:41.317Z,26.35
2019-04-26T22:37:29.523Z,24.75
2019-04-26T22:39:55.991Z,20.70
2019-04-26T22:42:32.981Z,22.40
2019-04-26T22:45:09.362Z,26.35
2019-04-26T22:47:43.361Z,22.30
2019-04-26T22:50:21.029Z,25.17
2019-04-26T22:52:52.466Z,24.10
2019-04-26T22:55:27.480Z,22.77
2019-04-26T22:58:06.783Z,23.50
2019-04-26T23:00:43.609Z,18.25
2019-04-26T23:03:18.109Z,19.37
2019-04-26T23:05:53.328Z,23.95
2019-04-26T23:08:26.025Z,22.67
2019-04-26T23:11:02.438Z,20.88
2019-04-26T23:13:37.896Z,23.30
2019-04-26T23:16:14.452Z,25.50
2019-04-26T23:18:47.052Z,20.05
2019-04-26T23:21:24.889Z,24.98
2019-04-26T23:23:58.273Z,25.90
2019-04-26T23:26:37.482Z,22.25
2019-04-26T23:29:15.465Z,20.05
2019-04-26T23:31:50.334Z,22.27
2019-04-26T23:34:33.700Z,25.50
2019-04-26T23:37:06.539Z,27.20
2019-04-26T23:39:44.509Z,24.55
2019-04-26T23:42:16.384Z,20.85
2019-04-26T23:44:48.848Z,23.55
2019-04-26T23:47:23.723Z,24.95
2019-04-26T23:49:57.102Z,28.65
2019-04-26T23:52:30.169Z,21.85
2019-04-26T23:55:08.770Z,26.68
2019-04-26T23:57:41.108Z,28.75
